KFOK 241653Z 10SM FEW038 14/06 A3018 RMK AO2 SLP220 T01440056

KFOK 241553Z 10SM FEW035 13/06 A3019 RMK AO2 SLP224 T01330061

KFOK 241453Z 01006KT 10SM SCT024 SCT029 13/07 A3020 RMK AO2 SLP225 T01280067 50008

KFOK 241408Z 32004KT 10SM BKN024 12/07 A3020 RMK AO2 T01170072

KFOK 241253Z 00000KT 10SM CLR 08/07 A3020 RMK AO2 SLP225 T00830072

KFOK 241153Z 00000KT 10SM CLR 02/01 A3017 RMK AO2 SLP218 70004 I6000 T00220011 10089 20006 52025

KFOK 241053Z 00000KT 10SM CLR 01/00 A3015 RMK AO2 SLP209 T00110000

KFOK 240953Z AUTO 00000KT 10SM CLR 02/01 A3013 RMK AO2 SLP202 T00170011